Time;durP1;ratioP1;P1;durP2;ratioP2;P2;SDS_P1;SDS_P2;PMS_P1;PMS_P2;Temp;Humidity;BMP_temperature;BMP_pressure;BME280_temperature;BME280_humidity;BME280_pressure;Samples;Min_cycle;Max_cycle;Signal;HPM_P1;HPM_P2
2022/06/08 00:00:15;;;;;;;9.38;3.70;;;9.70;99.90;;;;;;5051590;28;20039;-86
2022/06/08 00:02:44;;;;;;;8.35;3.47;;;9.70;99.90;;;;;;5069586;28;20101;-85
2022/06/08 00:05:10;;;;;;;5.28;3.75;;;9.70;99.90;;;;;;5066913;28;20480;-85
2022/06/08 00:07:36;;;;;;;12.32;4.43;;;9.70;99.90;;;;;;5071386;28;20044;-86
2022/06/08 00:10:03;;;;;;;7.18;4.50;;;9.70;99.90;;;;;;5060170;28;20439;-85
2022/06/08 00:12:28;;;;;;;7.30;4.07;;;9.70;99.90;;;;;;5052878;28;20052;-85
2022/06/08 00:14:54;;;;;;;5.43;3.65;;;9.60;99.90;;;;;;5050820;28;20037;-85
2022/06/08 00:17:21;;;;;;;7.22;4.00;;;9.60;99.90;;;;;;5053288;28;20060;-85
2022/06/08 00:19:47;;;;;;;8.05;3.50;;;9.60;99.90;;;;;;5066275;28;20094;-85
2022/06/08 00:22:13;;;;;;;8.35;4.28;;;9.60;99.90;;;;;;5074143;28;20049;-86
2022/06/08 00:24:39;;;;;;;6.75;4.20;;;9.60;99.90;;;;;;5065553;28;20041;-86
2022/06/08 00:27:05;;;;;;;5.25;4.15;;;9.60;99.90;;;;;;5056272;28;20041;-85
2022/06/08 00:29:32;;;;;;;5.32;4.32;;;9.60;99.90;;;;;;5055524;28;20516;-85
2022/06/08 00:31:58;;;;;;;6.88;4.00;;;9.60;99.90;;;;;;5054947;28;20077;-85
2022/06/08 00:34:24;;;;;;;5.10;4.40;;;9.60;99.90;;;;;;5056172;28;20088;-85
2022/06/08 00:36:49;;;;;;;9.32;4.05;;;9.60;99.90;;;;;;5054043;28;20047;-85
2022/06/08 00:39:15;;;;;;;5.57;4.10;;;9.60;99.90;;;;;;5055010;28;20389;-85
2022/06/08 00:41:48;;;;;;;6.38;4.32;;;9.60;99.90;;;;;;5055990;28;20472;-85
2022/06/08 00:44:24;;;;;;;9.27;4.40;;;9.60;99.90;;;;;;5055340;28;20080;-85
2022/06/08 00:46:52;;;;;;;9.00;4.20;;;9.50;99.90;;;;;;5055933;28;20044;-85
2022/06/08 00:49:27;;;;;;;9.30;4.85;;;9.60;99.90;;;;;;5055860;28;20481;-85
2022/06/08 00:51:53;;;;;;;;;;;9.50;99.90;;;;;;5054233;28;20091;-86
2022/06/08 00:54:32;;;;;;;9.40;5.18;;;9.50;99.90;;;;;;5061449;28;19924;-86
2022/06/08 00:57:05;;;;;;;7.93;4.53;;;9.50;99.90;;;;;;5074193;28;20048;-86
2022/06/08 00:59:31;;;;;;;8.82;4.88;;;9.50;99.90;;;;;;5069859;28;20485;-86
2022/06/08 01:01:56;;;;;;;7.05;4.65;;;9.50;99.90;;;;;;5055661;28;20056;-85
2022/06/08 01:04:22;;;;;;;7.28;4.40;;;9.50;99.90;;;;;;5054834;28;20045;-86
2022/06/08 01:06:58;;;;;;;9.90;4.60;;;9.50;99.90;;;;;;5062480;28;20360;-86
2022/06/08 01:09:38;;;;;;;11.52;4.53;;;9.60;99.90;;;;;;5071988;28;20053;-85
2022/06/08 01:12:12;;;;;;;4.97;4.45;;;9.60;99.90;;;;;;5053477;28;20049;-86
2022/06/08 01:14:37;;;;;;;4.70;4.13;;;9.60;99.90;;;;;;5071804;28;20052;-85
2022/06/08 01:17:10;;;;;;;7.63;4.65;;;9.50;99.90;;;;;;5063416;28;20049;-85
2022/06/08 01:19:44;;;;;;;8.85;5.53;;;9.60;99.90;;;;;;5054456;28;20056;-85
2022/06/08 01:22:12;;;;;;;11.32;4.85;;;9.60;99.90;;;;;;5054102;28;20053;-85
2022/06/08 01:24:40;;;;;;;7.28;5.30;;;9.60;99.90;;;;;;5053773;28;20051;-85
2022/06/08 01:27:21;;;;;;;11.10;5.35;;;9.60;99.90;;;;;;5053153;28;20087;-85
2022/06/08 01:30:16;;;;;;;14.88;5.57;;;9.70;99.90;;;;;;5055275;28;20476;-85
2022/06/08 01:33:07;;;;;;;10.30;5.07;;;9.80;99.90;;;;;;5038073;28;20132;-85
2022/06/08 01:35:45;;;;;;;11.10;5.55;;;9.80;99.90;;;;;;5070331;28;20044;-85
2022/06/08 01:38:14;;;;;;;10.98;5.53;;;9.80;99.90;;;;;;5054796;28;20486;-85
2022/06/08 01:40:49;;;;;;;12.02;5.68;;;9.80;99.90;;;;;;5053637;28;20052;-85
2022/06/08 01:43:53;;;;;;;;;;;9.80;99.90;;;;;;5053717;28;20056;-84
2022/06/08 01:46:32;;;;;;;9.93;5.78;;;9.90;99.90;;;;;;5047662;28;19925;-85
2022/06/08 01:49:06;;;;;;;7.85;4.75;;;9.90;99.90;;;;;;5035313;28;20045;-85
2022/06/08 01:51:50;;;;;;;15.20;5.57;;;10.00;99.90;;;;;;5045156;28;20128;-85
2022/06/08 01:54:34;;;;;;;12.05;5.70;;;10.00;99.90;;;;;;5069339;28;20127;-85
2022/06/08 01:57:28;;;;;;;14.20;5.90;;;10.00;99.90;;;;;;5073975;28;20056;-85
2022/06/08 02:00:04;;;;;;;9.85;5.95;;;10.00;99.90;;;;;;5050651;28;20076;-84
2022/06/08 02:02:53;;;;;;;12.75;6.78;;;10.10;99.90;;;;;;5052411;28;20135;-85
2022/06/08 02:05:34;;;;;;;15.90;6.53;;;10.10;99.90;;;;;;5053180;28;20056;-85
2022/06/08 02:08:12;;;;;;;13.73;6.47;;;10.10;99.90;;;;;;5052304;28;20048;-85
2022/06/08 02:11:06;;;;;;;14.27;6.78;;;10.10;99.90;;;;;;5053999;28;20052;-85
2022/06/08 02:13:40;;;;;;;11.82;6.72;;;10.10;99.90;;;;;;5042899;28;20481;-85
2022/06/08 02:16:12;;;;;;;14.98;7.03;;;10.10;99.90;;;;;;5052007;28;20055;-84
2022/06/08 02:18:43;;;;;;;11.65;7.15;;;10.20;99.90;;;;;;5052898;28;20095;-85
2022/06/08 02:21:25;;;;;;;12.52;7.20;;;10.20;99.90;;;;;;5052924;28;20037;-85
2022/06/08 02:24:04;;;;;;;13.45;7.55;;;10.20;99.90;;;;;;5054415;28;20118;-85
2022/06/08 02:26:32;;;;;;;14.63;7.70;;;10.20;99.90;;;;;;5053626;28;20045;-85
2022/06/08 02:29:02;;;;;;;13.77;9.32;;;10.20;99.90;;;;;;5053175;28;20443;-85
2022/06/08 02:31:32;;;;;;;12.63;7.78;;;10.20;99.90;;;;;;5054245;28;20451;-85
2022/06/08 02:36:54;;;;;;;13.75;8.60;;;10.30;99.90;;;;;;5051701;28;20409;-85
2022/06/08 02:39:32;;;;;;;13.50;7.82;;;10.30;99.90;;;;;;5053423;28;20045;-85
2022/06/08 02:42:05;;;;;;;11.75;8.32;;;10.30;99.90;;;;;;5052973;28;20556;-84
2022/06/08 02:44:33;;;;;;;17.27;9.93;;;10.30;99.90;;;;;;5051616;28;20047;-85
2022/06/08 02:47:31;;;;;;;13.57;8.35;;;10.30;99.90;;;;;;5053958;28;20053;-85
2022/06/08 02:50:12;;;;;;;17.38;11.10;;;10.30;99.90;;;;;;5051879;28;20033;-84
2022/06/08 02:52:43;;;;;;;20.05;11.88;;;10.30;99.90;;;;;;5052330;28;20048;-85
2022/06/08 02:55:33;;;;;;;16.27;10.90;;;10.40;99.90;;;;;;5053834;28;20116;-85
2022/06/08 02:58:06;;;;;;;20.85;11.25;;;10.40;99.90;;;;;;5051410;28;20485;-85
2022/06/08 03:00:32;;;;;;;22.27;12.05;;;10.40;99.90;;;;;;5054265;28;20045;-84
2022/06/08 03:03:21;;;;;;;16.10;11.05;;;10.40;99.90;;;;;;5063078;28;20089;-85
2022/06/08 03:06:00;;;;;;;15.77;11.48;;;10.40;99.90;;;;;;5051443;28;20055;-84
2022/06/08 03:08:30;;;;;;;18.80;11.32;;;10.40;99.90;;;;;;5052163;28;20052;-85
2022/06/08 03:11:00;;;;;;;15.88;10.80;;;10.40;99.90;;;;;;5051075;28;20065;-85
2022/06/08 03:13:37;;;;;;;18.55;11.65;;;10.40;99.90;;;;;;5069089;28;20037;-85
2022/06/08 03:16:06;;;;;;;17.80;11.82;;;10.40;99.90;;;;;;5052330;28;20045;-85
2022/06/08 03:18:32;;;;;;;19.67;11.80;;;10.40;99.90;;;;;;5052471;28;20045;-85
2022/06/08 03:21:00;;;;;;;16.20;10.63;;;10.40;99.90;;;;;;5054136;28;20481;-84
2022/06/08 03:23:27;;;;;;;19.52;12.25;;;10.40;99.90;;;;;;5071897;28;20120;-85
2022/06/08 03:25:53;;;;;;;19.02;12.45;;;10.40;99.90;;;;;;5070187;28;20036;-84
2022/06/08 03:28:19;;;;;;;18.27;11.68;;;10.40;99.90;;;;;;5051827;28;20488;-85
2022/06/08 03:30:46;;;;;;;19.60;11.77;;;10.40;99.90;;;;;;5053248;28;20103;-85
2022/06/08 03:33:12;;;;;;;20.27;12.32;;;10.40;99.90;;;;;;5051295;28;20061;-85
2022/06/08 03:35:39;;;;;;;17.85;12.02;;;10.40;99.90;;;;;;5052231;28;20388;-84
2022/06/08 03:38:06;;;;;;;18.55;11.82;;;10.40;99.90;;;;;;5051413;28;20045;-85
2022/06/08 03:40:32;;;;;;;21.02;12.27;;;10.40;99.90;;;;;;5051049;28;20041;-85
2022/06/08 03:42:58;;;;;;;14.43;11.43;;;10.50;99.90;;;;;;5053341;28;20041;-84
2022/06/08 03:45:26;;;;;;;14.73;11.25;;;10.40;99.90;;;;;;5051861;28;20048;-85
2022/06/08 03:47:53;;;;;;;16.55;11.77;;;10.50;99.90;;;;;;5052420;28;20052;-85
2022/06/08 03:50:28;;;;;;;18.85;11.57;;;10.60;99.90;;;;;;5051535;28;20408;-85
2022/06/08 03:53:01;;;;;;;17.83;12.07;;;10.60;99.90;;;;;;5055489;28;20083;-85
2022/06/08 03:55:29;;;;;;;16.98;12.93;;;10.70;99.90;;;;;;5055842;28;20088;-85
2022/06/08 03:57:56;;;;;;;14.88;11.40;;;10.70;99.90;;;;;;5056918;28;20052;-85
2022/06/08 04:00:24;;;;;;;24.90;14.25;;;10.80;99.90;;;;;;5054625;28;20049;-84
2022/06/08 04:02:50;;;;;;;21.67;13.00;;;10.90;99.90;;;;;;5055449;28;20045;-85
2022/06/08 04:05:16;;;;;;;21.40;13.80;;;11.00;99.90;;;;;;5055060;28;20044;-87
2022/06/08 04:07:42;;;;;;;26.30;13.55;;;11.10;99.90;;;;;;5037980;28;20190;-85
2022/06/08 04:10:09;;;;;;;22.95;13.32;;;11.20;99.90;;;;;;5054939;28;20092;-86
2022/06/08 04:12:35;;;;;;;19.48;14.00;;;11.30;99.90;;;;;;5055416;28;20067;-85
2022/06/08 04:15:02;;;;;;;21.45;13.45;;;11.40;99.90;;;;;;5055578;28;20041;-86
2022/06/08 04:17:29;;;;;;;21.25;14.50;;;11.50;99.90;;;;;;5055153;28;20064;-86
2022/06/08 04:19:55;;;;;;;23.20;14.90;;;11.50;99.90;;;;;;5055015;28;20401;-86
2022/06/08 04:22:22;;;;;;;20.50;15.18;;;11.60;99.90;;;;;;5055246;28;20107;-85
2022/06/08 04:24:48;;;;;;;17.25;13.73;;;11.60;99.90;;;;;;5055198;28;20045;-86
2022/06/08 04:27:15;;;;;;;17.27;13.07;;;11.60;99.90;;;;;;5055985;28;20048;-86
2022/06/08 04:29:42;;;;;;;22.15;13.73;;;11.70;99.90;;;;;;5103116;28;20044;-86
2022/06/08 04:32:09;;;;;;;18.63;13.43;;;11.70;99.90;;;;;;5094235;28;20154;-85
2022/06/08 04:34:37;;;;;;;20.10;13.88;;;11.70;99.90;;;;;;5075848;28;20389;-86
2022/06/08 04:37:03;;;;;;;20.77;15.00;;;11.80;99.90;;;;;;5073900;28;20395;-86
2022/06/08 04:39:29;;;;;;;22.15;14.48;;;11.80;99.90;;;;;;5060856;28;20044;-86
2022/06/08 04:41:55;;;;;;;20.85;14.13;;;11.80;99.90;;;;;;5071444;28;20073;-86
2022/06/08 04:44:21;;;;;;;21.63;14.23;;;11.90;99.90;;;;;;5073587;28;20040;-87
2022/06/08 04:46:47;;;;;;;26.20;14.27;;;11.90;99.90;;;;;;5074507;28;20496;-86
2022/06/08 04:49:13;;;;;;;20.65;14.40;;;11.90;99.90;;;;;;5056476;28;20044;-86
2022/06/08 04:51:39;;;;;;;22.73;14.15;;;12.00;99.90;;;;;;5064893;28;20079;-87
2022/06/08 04:54:05;;;;;;;24.58;14.98;;;12.00;99.90;;;;;;5068843;28;20041;-86
2022/06/08 04:56:31;;;;;;;25.95;15.93;;;12.10;99.90;;;;;;5064665;28;20040;-87
2022/06/08 04:58:57;;;;;;;22.65;15.13;;;12.10;99.90;;;;;;5054810;28;20048;-86
2022/06/08 05:01:23;;;;;;;20.88;14.40;;;12.20;99.90;;;;;;5056595;28;20549;-87
2022/06/08 05:03:49;;;;;;;21.85;14.75;;;12.20;99.90;;;;;;5054624;28;20033;-88
2022/06/08 05:06:15;;;;;;;21.95;14.63;;;12.20;99.90;;;;;;5055050;28;20478;-89
2022/06/08 05:08:40;;;;;;;27.55;15.90;;;12.30;99.90;;;;;;5054732;28;20388;-88
2022/06/08 05:11:07;;;;;;;21.58;15.88;;;12.30;99.90;;;;;;5053529;28;20045;-87
2022/06/08 05:13:34;;;;;;;24.60;15.60;;;12.40;99.90;;;;;;5055969;28;20049;-87
2022/06/08 05:16:01;;;;;;;25.02;16.48;;;12.40;99.90;;;;;;5072717;28;20368;-86
2022/06/08 05:18:27;;;;;;;25.52;17.10;;;12.50;99.90;;;;;;5072810;28;20048;-87
2022/06/08 05:20:54;;;;;;;23.80;16.58;;;12.50;99.90;;;;;;5072248;28;20033;-87
2022/06/08 05:23:30;;;;;;;25.52;17.38;;;12.60;99.90;;;;;;5054597;28;20463;-88
2022/06/08 05:25:56;;;;;;;25.10;16.23;;;12.70;99.90;;;;;;5059406;28;20319;-87
2022/06/08 05:28:23;;;;;;;26.05;16.88;;;12.70;99.90;;;;;;5075582;28;20100;-89
2022/06/08 05:30:49;;;;;;;25.75;15.98;;;12.80;99.90;;;;;;5073019;28;20434;-88
2022/06/08 05:33:16;;;;;;;23.52;16.40;;;12.90;99.90;;;;;;5054870;28;20107;-87
2022/06/08 05:35:43;;;;;;;23.92;16.13;;;12.90;99.90;;;;;;5055032;28;20546;-89
2022/06/08 05:38:08;;;;;;;23.83;15.77;;;13.00;99.90;;;;;;5053480;28;20092;-87
2022/06/08 05:40:37;;;;;;;25.48;15.68;;;13.10;99.90;;;;;;5049515;28;20091;-88
2022/06/08 05:43:07;;;;;;;21.38;15.68;;;13.20;99.90;;;;;;5072077;28;20396;-88
2022/06/08 05:45:34;;;;;;;22.70;16.73;;;13.30;99.90;;;;;;5054422;28;20049;-89
2022/06/08 05:48:01;;;;;;;25.50;15.82;;;13.40;99.90;;;;;;5054339;28;20092;-90
2022/06/08 05:50:28;;;;;;;22.77;15.80;;;13.50;99.90;;;;;;5055732;28;20429;-90
2022/06/08 05:52:54;;;;;;;22.65;15.77;;;13.60;99.90;;;;;;5054203;28;20048;-91
2022/06/08 05:55:22;;;;;;;19.83;16.10;;;13.60;99.90;;;;;;5055703;28;20079;-90
2022/06/08 05:57:48;;;;;;;19.42;14.63;;;13.70;99.90;;;;;;5054644;28;20051;-90
2022/06/08 06:00:17;;;;;;;22.70;13.93;;;13.80;99.90;;;;;;5054871;28;20068;-91
2022/06/08 06:02:44;;;;;;;19.10;13.82;;;13.90;99.90;;;;;;5055261;28;20131;-92
2022/06/08 06:05:12;;;;;;;22.13;14.02;;;14.00;99.90;;;;;;5054038;28;20056;-90
2022/06/08 06:07:39;;;;;;;20.42;13.63;;;14.00;99.90;;;;;;5054170;28;20068;-91
2022/06/08 06:10:06;;;;;;;17.38;14.43;;;14.10;99.90;;;;;;5054375;28;20072;-92
2022/06/08 06:12:32;;;;;;;18.85;14.05;;;14.10;99.90;;;;;;5055255;28;20053;-92
2022/06/08 06:15:01;;;;;;;21.95;14.63;;;14.10;99.90;;;;;;5053080;28;20052;-91
2022/06/08 06:17:28;;;;;;;16.42;13.40;;;14.20;99.90;;;;;;5067637;28;20049;-90
2022/06/08 06:19:55;;;;;;;19.90;13.95;;;14.20;99.90;;;;;;5073039;28;20051;-81
2022/06/08 06:22:21;;;;;;;20.27;13.68;;;14.30;99.90;;;;;;5075724;28;20081;-82
2022/06/08 06:24:47;;;;;;;23.70;14.48;;;14.40;99.90;;;;;;5084214;28;20040;-81
2022/06/08 06:27:13;;;;;;;18.80;13.35;;;14.40;99.90;;;;;;5073379;28;20037;-81
2022/06/08 06:29:42;;;;;;;20.98;13.90;;;14.50;99.90;;;;;;5071760;28;20057;-82
2022/06/08 06:32:21;;;;;;;23.70;13.45;;;14.60;99.90;;;;;;5073514;28;20049;-81
2022/06/08 06:34:47;;;;;;;21.98;13.35;;;14.60;99.90;;;;;;5072855;28;20044;-81
2022/06/08 06:37:21;;;;;;;20.73;13.20;;;14.70;99.90;;;;;;5072387;28;20105;-81
2022/06/08 06:39:47;;;;;;;19.42;12.63;;;14.70;99.90;;;;;;5084397;28;20044;-81
2022/06/08 06:42:20;;;;;;;15.55;13.02;;;14.80;99.90;;;;;;5077579;28;20051;-82
2022/06/08 06:44:46;;;;;;;20.58;14.23;;;14.80;99.90;;;;;;5055055;28;20055;-81
2022/06/08 06:47:13;;;;;;;22.55;13.30;;;14.90;99.90;;;;;;5089298;28;20056;-81
2022/06/08 06:49:39;;;;;;;14.73;12.93;;;15.00;99.90;;;;;;5073400;28;20033;-81
2022/06/08 06:52:05;;;;;;;14.93;12.77;;;15.20;99.90;;;;;;5060616;28;20052;-81
2022/06/08 06:54:32;;;;;;;17.05;12.75;;;15.30;99.90;;;;;;5086241;28;20044;-80
2022/06/08 06:56:58;;;;;;;15.63;12.43;;;15.50;99.90;;;;;;5052616;28;20049;-81
2022/06/08 06:59:24;;;;;;;14.30;11.57;;;15.60;99.90;;;;;;5053589;28;20036;-81
2022/06/08 07:01:50;;;;;;;18.33;12.23;;;15.70;99.90;;;;;;5067999;28;20055;-81
2022/06/08 07:04:18;;;;;;;15.88;10.75;;;15.80;99.90;;;;;;5072205;28;20040;-80
2022/06/08 07:06:46;;;;;;;19.15;12.13;;;15.90;99.90;;;;;;5063623;28;20048;-80
2022/06/08 07:09:13;;;;;;;14.70;10.55;;;16.00;99.90;;;;;;5068920;28;20045;-81
2022/06/08 07:11:42;;;;;;;15.23;11.32;;;16.00;99.90;;;;;;5069842;28;20499;-80
2022/06/08 07:14:17;;;;;;;16.25;10.30;;;16.10;99.90;;;;;;5060415;28;20060;-81
2022/06/08 07:16:45;;;;;;;13.10;10.43;;;16.10;99.90;;;;;;5052966;28;20084;-81
2022/06/08 07:19:11;;;;;;;10.80;9.07;;;16.20;99.90;;;;;;5064373;28;20055;-80
2022/06/08 07:21:38;;;;;;;13.65;9.75;;;16.20;99.90;;;;;;5073153;28;20427;-80
2022/06/08 07:24:04;;;;;;;13.35;8.68;;;16.30;99.90;;;;;;5064296;28;20056;-81
2022/06/08 07:26:30;;;;;;;11.95;9.18;;;16.30;99.90;;;;;;5055846;28;20489;-80
2022/06/08 07:28:57;;;;;;;12.27;9.70;;;16.40;99.90;;;;;;5074872;28;21330;-80
2022/06/08 07:31:24;;;;;;;14.43;8.98;;;16.40;99.90;;;;;;5061913;28;20064;-80
2022/06/08 07:33:50;;;;;;;12.25;8.95;;;16.50;99.90;;;;;;5076796;28;20395;-80
2022/06/08 07:36:17;;;;;;;11.55;8.30;;;16.50;99.90;;;;;;5077772;28;20470;-82
2022/06/08 07:38:43;;;;;;;12.82;8.30;;;16.50;99.90;;;;;;5058656;28;20485;-80
2022/06/08 07:41:09;;;;;;;10.18;7.93;;;16.60;99.90;;;;;;5073153;28;20105;-81
2022/06/08 07:43:36;;;;;;;9.07;7.15;;;16.60;99.90;;;;;;5061653;28;20487;-80
2022/06/08 07:46:02;;;;;;;13.02;7.80;;;16.60;99.90;;;;;;5064983;28;20059;-80
2022/06/08 07:51:12;;;;;;;7.47;6.07;;;16.70;99.90;;;;;;5055665;28;20052;-81
2022/06/08 07:53:39;;;;;;;8.23;5.97;;;16.80;99.90;;;;;;5054962;28;20074;-80
2022/06/08 07:56:05;;;;;;;9.48;5.68;;;16.80;99.90;;;;;;5055850;28;20052;-81
2022/06/08 07:58:31;;;;;;;8.98;6.00;;;16.90;99.90;;;;;;5055382;28;20492;-81
2022/06/08 08:00:57;;;;;;;7.38;5.60;;;16.90;99.90;;;;;;5054870;28;20041;-81
2022/06/08 08:03:25;;;;;;;8.07;4.90;;;17.00;99.90;;;;;;5055359;28;20049;-81
2022/06/08 08:05:52;;;;;;;6.30;5.32;;;17.00;99.90;;;;;;5055532;28;20076;-81
2022/06/08 08:08:19;;;;;;;7.18;5.60;;;17.00;99.90;;;;;;5056369;28;20433;-81
2022/06/08 08:10:46;;;;;;;9.70;5.15;;;17.10;99.90;;;;;;5071640;28;20152;-81
2022/06/08 08:13:13;;;;;;;7.22;5.22;;;17.10;99.90;;;;;;5055516;28;20060;-81
2022/06/08 08:15:40;;;;;;;6.78;5.03;;;17.20;99.90;;;;;;5055134;28;20512;-80
2022/06/08 08:18:07;;;;;;;7.13;4.78;;;17.30;99.90;;;;;;5055266;28;20041;-80
2022/06/08 08:20:34;;;;;;;7.05;4.43;;;17.40;99.90;;;;;;5054280;28;20048;-82
2022/06/08 08:23:00;;;;;;;5.28;4.43;;;17.50;99.90;;;;;;5056390;28;20056;-81
2022/06/08 08:25:27;;;;;;;5.22;4.22;;;17.50;99.90;;;;;;5055211;28;20045;-81
2022/06/08 08:27:54;;;;;;;5.95;4.15;;;17.60;99.90;;;;;;5054352;28;20048;-81
2022/06/08 08:30:23;;;;;;;4.03;2.90;;;17.70;99.90;;;;;;5055146;28;20048;-80
2022/06/08 08:32:49;;;;;;;4.13;3.08;;;17.80;99.90;;;;;;5054978;28;20048;-80
2022/06/08 08:35:16;;;;;;;5.10;3.13;;;17.90;99.90;;;;;;5070696;28;20041;-82
2022/06/08 08:37:46;;;;;;;8.43;3.13;;;18.00;99.90;;;;;;5054064;28;20488;-80
2022/06/08 08:40:38;;;;;;;4.90;3.05;;;18.20;99.90;;;;;;5054905;28;20048;-81
2022/06/08 08:43:09;;;;;;;6.07;2.78;;;18.30;99.90;;;;;;5054178;28;20085;-81
2022/06/08 08:45:50;;;;;;;3.83;2.20;;;18.40;99.90;;;;;;5055069;28;20056;-81
2022/06/08 08:48:25;;;;;;;4.53;1.85;;;18.40;99.90;;;;;;5054918;28;20503;-80
2022/06/08 08:50:51;;;;;;;5.00;1.70;;;18.40;99.90;;;;;;5054617;28;20049;-82
2022/06/08 08:53:26;;;;;;;5.75;2.17;;;18.30;99.90;;;;;;5055848;28;20094;-80
2022/06/08 08:56:04;;;;;;;2.85;2.05;;;18.30;99.90;;;;;;5055090;28;20044;-81
2022/06/08 08:58:35;;;;;;;3.72;1.80;;;18.30;99.90;;;;;;5054149;28;20056;-80
2022/06/08 09:01:17;;;;;;;9.43;2.70;;;18.30;99.90;;;;;;5055554;28;20138;-81
2022/06/08 09:03:53;;;;;;;2.90;2.30;;;18.40;99.90;;;;;;5070449;28;20392;-81
2022/06/08 09:06:22;;;;;;;2.38;2.10;;;18.40;99.90;;;;;;5055679;28;20056;-81
2022/06/08 09:08:51;;;;;;;7.60;2.40;;;18.50;99.90;;;;;;5071050;28;20547;-81
2022/06/08 09:11:23;;;;;;;3.67;2.58;;;18.60;99.90;;;;;;5053040;28;20060;-81
2022/06/08 09:13:54;;;;;;;5.28;1.60;;;18.80;99.90;;;;;;5055309;28;20489;-80
2022/06/08 09:16:35;;;;;;;4.40;2.30;;;18.80;99.90;;;;;;5055207;28;20381;-81
2022/06/08 09:19:22;;;;;;;5.03;2.42;;;18.90;99.90;;;;;;5055353;28;20099;-82
2022/06/08 09:22:01;;;;;;;5.22;2.30;;;19.00;99.90;;;;;;5055068;28;20124;-80
2022/06/08 09:24:53;;;;;;;2.20;2.00;;;19.10;99.90;;;;;;5053448;28;20084;-80
2022/06/08 09:27:35;;;;;;;3.60;2.00;;;19.20;99.90;;;;;;5053984;28;20056;-80
2022/06/08 09:30:19;;;;;;;2.63;1.63;;;19.20;99.90;;;;;;5054959;28;20052;-81
2022/06/08 09:32:49;;;;;;;8.07;2.10;;;19.20;99.90;;;;;;5054345;28;20056;-80
2022/06/08 09:35:39;;;;;;;4.97;1.58;;;19.30;99.90;;;;;;5053908;28;20044;-80
2022/06/08 09:38:13;;;;;;;2.92;2.00;;;19.30;99.90;;;;;;5052827;28;20053;-80
2022/06/08 09:40:47;;;;;;;2.83;1.40;;;19.20;99.90;;;;;;5055072;28;20041;-80
2022/06/08 09:43:27;;;;;;;3.25;1.92;;;19.20;99.90;;;;;;5053509;28;20037;-81
2022/06/08 09:45:55;;;;;;;4.75;1.42;;;19.10;99.90;;;;;;5052694;28;20041;-81
2022/06/08 09:51:26;;;;;;;3.17;1.40;;;19.00;99.90;;;;;;5054330;28;20056;-80
2022/06/08 09:54:03;;;;;;;4.03;1.73;;;19.00;99.90;;;;;;5053952;28;20049;-80
2022/06/08 09:57:08;;;;;;;5.18;2.05;;;19.10;99.90;;;;;;5054614;28;20045;-80
2022/06/08 09:59:55;;;;;;;2.87;1.43;;;19.30;99.90;;;;;;5053816;28;20041;-80
2022/06/08 10:02:58;;;;;;;1.90;1.20;;;19.50;99.90;;;;;;5053197;28;20090;-81
2022/06/08 10:05:38;;;;;;;3.05;2.13;;;19.70;99.90;;;;;;5054507;28;20045;-80
2022/06/08 10:08:31;;;;;;;3.70;2.15;;;19.80;99.90;;;;;;5054432;28;20041;-80
2022/06/08 10:11:03;;;;;;;3.45;1.88;;;20.00;99.90;;;;;;5036312;28;20138;-79
2022/06/08 10:13:39;;;;;;;3.75;1.95;;;20.10;99.90;;;;;;5053440;28;20382;-81
2022/06/08 10:16:18;;;;;;;2.83;1.75;;;20.10;99.90;;;;;;5054126;28;20059;-80
2022/06/08 10:19:06;;;;;;;3.97;2.00;;;20.10;99.90;;;;;;5052899;28;20052;-80
2022/06/08 10:21:38;;;;;;;4.18;1.83;;;20.10;99.90;;;;;;5052183;28;20477;-80
2022/06/08 10:24:13;;;;;;;3.55;1.98;;;20.00;99.90;;;;;;5053182;28;20048;-80
2022/06/08 10:26:48;;;;;;;;;;;20.00;99.90;;;;;;5054328;28;20400;-80
2022/06/08 10:29:28;;;;;;;1.92;1.63;;;20.00;99.90;;;;;;5054071;28;19967;-80
2022/06/08 10:32:05;;;;;;;3.42;2.13;;;20.00;99.90;;;;;;5054025;28;20033;-81
2022/06/08 10:34:33;;;;;;;5.30;2.72;;;20.00;99.90;;;;;;5053198;28;20045;-80
2022/06/08 10:37:10;;;;;;;5.30;1.90;;;19.90;99.90;;;;;;5053905;28;20126;-81
2022/06/08 10:39:38;;;;;;;3.90;2.03;;;19.90;99.90;;;;;;5053955;28;20087;-80
2022/06/08 10:42:40;;;;;;;4.28;2.40;;;19.80;99.90;;;;;;5052910;28;20095;-81
2022/06/08 10:45:21;;;;;;;2.85;2.60;;;19.60;99.90;;;;;;5052700;28;20435;-82
2022/06/08 10:48:01;;;;;;;7.68;3.08;;;19.40;99.90;;;;;;5068870;28;20535;-82
2022/06/08 10:50:43;;;;;;;7.72;3.63;;;19.20;99.90;;;;;;5052441;28;20057;-82
2022/06/08 10:56:24;;;;;;;5.53;3.65;;;18.70;99.90;;;;;;5051490;28;20477;-82
2022/06/08 10:59:08;;;;;;;7.85;4.32;;;18.50;99.90;;;;;;5052218;28;20487;-83
2022/06/08 11:01:56;;;;;;;7.77;3.70;;;18.30;99.90;;;;;;5052964;28;20044;-82
2022/06/08 11:04:32;;;;;;;7.40;3.97;;;18.20;99.90;;;;;;5053604;28;20053;-82
2022/06/08 11:07:05;;;;;;;5.72;4.75;;;18.10;99.90;;;;;;5052255;28;20048;-82
2022/06/08 11:09:34;;;;;;;6.82;4.53;;;18.10;99.90;;;;;;5051466;28;20045;-81
2022/06/08 11:12:11;;;;;;;9.55;4.63;;;18.00;99.90;;;;;;5051808;28;20056;-82
2022/06/08 11:14:43;;;;;;;10.10;4.93;;;18.00;99.90;;;;;;5052069;28;20559;-81
2022/06/08 11:17:27;;;;;;;10.15;6.15;;;18.00;99.90;;;;;;5050970;28;20077;-81
2022/06/08 11:20:05;;;;;;;10.65;6.32;;;17.90;99.90;;;;;;5052045;28;20536;-81
2022/06/08 11:22:38;;;;;;;7.25;5.57;;;17.90;99.90;;;;;;5053397;28;20114;-81
2022/06/08 11:25:09;;;;;;;8.45;5.80;;;17.90;99.90;;;;;;5052645;28;20068;-81
2022/06/08 11:27:38;;;;;;;7.50;5.30;;;17.90;99.90;;;;;;5053421;28;20041;-81
2022/06/08 11:30:27;;;;;;;18.27;6.55;;;17.80;99.90;;;;;;5051236;28;20516;-81
2022/06/08 11:32:52;;;;;;;8.02;5.88;;;17.80;99.90;;;;;;5068620;28;20052;-81
2022/06/08 11:35:33;;;;;;;7.70;6.05;;;17.80;99.90;;;;;;5051777;28;20041;-81
2022/06/08 11:38:02;;;;;;;6.13;5.43;;;17.80;99.90;;;;;;5052287;28;20128;-81
2022/06/08 11:40:32;;;;;;;7.05;5.78;;;17.80;99.90;;;;;;5052179;28;20057;-81
2022/06/08 11:43:10;;;;;;;6.93;5.63;;;17.90;99.90;;;;;;5053044;28;20562;-81
2022/06/08 11:45:52;;;;;;;7.00;5.80;;;17.90;99.90;;;;;;5052151;28;20473;-81
2022/06/08 11:48:23;;;;;;;10.27;5.82;;;18.00;99.90;;;;;;5053197;28;20102;-81
2022/06/08 11:51:03;;;;;;;9.13;5.90;;;18.00;99.90;;;;;;5053090;28;20041;-81
2022/06/08 11:53:29;;;;;;;7.50;5.38;;;18.20;99.90;;;;;;5051173;28;20492;-81
2022/06/08 11:56:39;;;;;;;10.43;6.28;;;18.30;99.90;;;;;;5053065;28;20051;-81
2022/06/08 11:59:16;;;;;;;8.27;6.53;;;18.40;99.90;;;;;;5010407;28;20081;-81
2022/06/08 12:01:48;;;;;;;7.72;6.05;;;18.60;99.90;;;;;;5047569;28;20068;-81
2022/06/08 12:04:19;;;;;;;10.50;6.70;;;18.70;99.90;;;;;;5051497;28;20518;-80
2022/06/08 12:06:46;;;;;;;10.32;5.47;;;18.80;99.90;;;;;;5052058;28;20485;-82
2022/06/08 12:09:14;;;;;;;7.88;5.25;;;18.90;99.90;;;;;;5051583;28;20053;-81
2022/06/08 12:11:45;;;;;;;11.75;5.60;;;19.00;99.90;;;;;;5051549;28;20400;-81
2022/06/08 12:14:28;;;;;;;8.60;5.20;;;19.00;99.90;;;;;;5055752;28;20118;-81
2022/06/08 12:17:00;;;;;;;10.40;4.80;;;19.10;99.90;;;;;;5055341;28;20447;-81
2022/06/08 12:19:30;;;;;;;7.88;3.85;;;19.10;99.90;;;;;;5054556;28;20080;-82
2022/06/08 12:22:14;;;;;;;8.48;4.10;;;19.10;99.90;;;;;;5056538;28;20041;-81
2022/06/08 12:24:40;;;;;;;13.07;4.47;;;19.00;99.90;;;;;;5071741;28;20081;-82
2022/06/08 12:27:46;;;;;;;7.00;3.28;;;18.90;99.90;;;;;;5054627;28;20299;-81
2022/06/08 12:30:35;;;;;;;7.63;3.33;;;18.80;99.90;;;;;;5056282;28;20553;-81
2022/06/08 12:33:13;;;;;;;7.05;3.10;;;18.70;99.90;;;;;;5056236;28;20044;-80
2022/06/08 12:35:52;;;;;;;10.60;3.88;;;18.60;99.90;;;;;;5054022;28;20056;-81
2022/06/08 12:38:28;;;;;;;6.70;3.53;;;18.50;99.90;;;;;;5056222;28;20045;-81
2022/06/08 12:41:02;;;;;;;12.15;3.70;;;18.50;99.90;;;;;;5054236;28;20118;-81
2022/06/08 12:43:48;;;;;;;10.30;4.70;;;18.30;99.90;;;;;;5054823;28;20536;-81
2022/06/08 12:46:20;;;;;;;12.48;4.40;;;18.40;99.90;;;;;;5054899;28;20045;-82
2022/06/08 12:48:47;;;;;;;10.25;4.47;;;18.30;99.90;;;;;;5055274;28;20071;-81
2022/06/08 12:51:37;;;;;;;11.50;4.72;;;18.30;99.90;;;;;;5055831;28;20044;-83
2022/06/08 12:54:12;;;;;;;13.77;4.13;;;18.20;99.90;;;;;;5071388;28;20044;-83
2022/06/08 12:56:38;;;;;;;;;;;18.20;99.90;;;;;;5055331;28;20048;-80
2022/06/08 12:59:03;;;;;;;7.22;5.22;;;18.10;99.90;;;;;;5055807;28;19921;-83
2022/06/08 13:01:30;;;;;;;6.80;5.28;;;18.10;99.90;;;;;;5036764;28;20107;-83
2022/06/08 13:03:56;;;;;;;10.32;6.05;;;18.00;99.90;;;;;;5054422;28;20136;-82
2022/06/08 13:06:24;;;;;;;8.80;5.80;;;17.90;99.90;;;;;;5054594;28;20056;-83
2022/06/08 13:08:50;;;;;;;12.13;6.50;;;17.90;99.90;;;;;;5053641;28;20454;-82
2022/06/08 13:11:23;;;;;;;9.68;6.40;;;17.80;99.90;;;;;;5054114;28;20124;-81
2022/06/08 13:13:50;;;;;;;11.35;7.95;;;17.80;99.90;;;;;;5054192;28;20061;-82
2022/06/08 13:16:23;;;;;;;12.35;7.82;;;17.80;99.90;;;;;;5053317;28;20500;-81